sensor_id;sensor_type;location;lat;lon;timestamp;temperature;humidity
48208;DHT22;33997;53.278;9.708;2024-03-07T00:02:13;-3276.70;97.60
48208;DHT22;33997;53.278;9.708;2024-03-07T00:04:39;-3276.70;97.70
48208;DHT22;33997;53.278;9.708;2024-03-07T00:07:05;0.00;97.90
48208;DHT22;33997;53.278;9.708;2024-03-07T00:09:31;0.10;98.10
48208;DHT22;33997;53.278;9.708;2024-03-07T00:11:57;0.20;98.00
48208;DHT22;33997;53.278;9.708;2024-03-07T00:14:22;0.40;98.10
48208;DHT22;33997;53.278;9.708;2024-03-07T00:16:58;0.60;98.40
48208;DHT22;33997;53.278;9.708;2024-03-07T00:19:26;0.70;98.30
48208;DHT22;33997;53.278;9.708;2024-03-07T00:21:56;0.80;98.40
48208;DHT22;33997;53.278;9.708;2024-03-07T00:24:22;1.00;98.40
48208;DHT22;33997;53.278;9.708;2024-03-07T00:26:48;1.00;98.40
48208;DHT22;33997;53.278;9.708;2024-03-07T00:29:16;1.10;98.60
48208;DHT22;33997;53.278;9.708;2024-03-07T00:31:44;1.20;98.50
48208;DHT22;33997;53.278;9.708;2024-03-07T00:34:09;1.30;98.60
48208;DHT22;33997;53.278;9.708;2024-03-07T00:36:35;1.30;98.50
48208;DHT22;33997;53.278;9.708;2024-03-07T00:39:01;1.40;98.60
48208;DHT22;33997;53.278;9.708;2024-03-07T00:41:26;1.50;98.60
48208;DHT22;33997;53.278;9.708;2024-03-07T00:43:52;1.60;98.70
48208;DHT22;33997;53.278;9.708;2024-03-07T00:46:17;1.60;98.60
48208;DHT22;33997;53.278;9.708;2024-03-07T00:48:42;1.60;98.60
48208;DHT22;33997;53.278;9.708;2024-03-07T00:51:08;1.70;98.60
48208;DHT22;33997;53.278;9.708;2024-03-07T00:53:34;1.70;98.60
48208;DHT22;33997;53.278;9.708;2024-03-07T00:55:59;1.70;98.60
48208;DHT22;33997;53.278;9.708;2024-03-07T00:58:25;1.70;98.60
48208;DHT22;33997;53.278;9.708;2024-03-07T01:00:50;1.80;98.60
48208;DHT22;33997;53.278;9.708;2024-03-07T01:03:16;1.80;98.70
48208;DHT22;33997;53.278;9.708;2024-03-07T01:05:43;1.90;98.70
48208;DHT22;33997;53.278;9.708;2024-03-07T01:08:08;1.90;98.70
48208;DHT22;33997;53.278;9.708;2024-03-07T01:10:34;1.90;98.70
48208;DHT22;33997;53.278;9.708;2024-03-07T01:12:59;1.90;98.80
48208;DHT22;33997;53.278;9.708;2024-03-07T01:15:28;1.90;98.70
48208;DHT22;33997;53.278;9.708;2024-03-07T01:17:53;2.00;98.90
48208;DHT22;33997;53.278;9.708;2024-03-07T01:20:19;2.00;98.80
48208;DHT22;33997;53.278;9.708;2024-03-07T01:22:44;2.00;98.90
48208;DHT22;33997;53.278;9.708;2024-03-07T01:25:10;2.10;98.80
48208;DHT22;33997;53.278;9.708;2024-03-07T01:27:37;2.10;98.80
48208;DHT22;33997;53.278;9.708;2024-03-07T01:30:03;2.10;98.90
48208;DHT22;33997;53.278;9.708;2024-03-07T01:32:28;2.10;98.80
48208;DHT22;33997;53.278;9.708;2024-03-07T01:34:54;2.10;98.80
48208;DHT22;33997;53.278;9.708;2024-03-07T01:37:20;2.10;98.70
48208;DHT22;33997;53.278;9.708;2024-03-07T01:39:45;2.10;98.70
48208;DHT22;33997;53.278;9.708;2024-03-07T01:42:12;2.20;98.70
48208;DHT22;33997;53.278;9.708;2024-03-07T01:44:37;2.20;98.70
48208;DHT22;33997;53.278;9.708;2024-03-07T01:47:05;2.20;98.70
48208;DHT22;33997;53.278;9.708;2024-03-07T01:49:31;2.30;98.70
48208;DHT22;33997;53.278;9.708;2024-03-07T01:51:58;2.20;98.60
48208;DHT22;33997;53.278;9.708;2024-03-07T01:54:23;2.30;98.70
48208;DHT22;33997;53.278;9.708;2024-03-07T01:56:50;2.30;98.50
48208;DHT22;33997;53.278;9.708;2024-03-07T01:59:16;2.40;98.50
48208;DHT22;33997;53.278;9.708;2024-03-07T02:01:42;2.40;98.50
48208;DHT22;33997;53.278;9.708;2024-03-07T02:04:08;2.50;98.50
48208;DHT22;33997;53.278;9.708;2024-03-07T02:06:34;2.60;98.60
48208;DHT22;33997;53.278;9.708;2024-03-07T02:09:00;2.60;98.50
48208;DHT22;33997;53.278;9.708;2024-03-07T02:11:27;2.60;98.40
48208;DHT22;33997;53.278;9.708;2024-03-07T02:13:52;2.60;98.30
48208;DHT22;33997;53.278;9.708;2024-03-07T02:16:18;2.60;98.40
48208;DHT22;33997;53.278;9.708;2024-03-07T02:18:44;2.70;98.30
48208;DHT22;33997;53.278;9.708;2024-03-07T02:21:10;2.70;98.20
48208;DHT22;33997;53.278;9.708;2024-03-07T02:23:37;2.70;98.20
48208;DHT22;33997;53.278;9.708;2024-03-07T02:26:03;2.70;98.10
48208;DHT22;33997;53.278;9.708;2024-03-07T02:28:29;2.80;98.20
48208;DHT22;33997;53.278;9.708;2024-03-07T02:30:54;2.80;98.10
48208;DHT22;33997;53.278;9.708;2024-03-07T02:33:20;2.80;98.00
48208;DHT22;33997;53.278;9.708;2024-03-07T02:35:46;2.90;98.10
48208;DHT22;33997;53.278;9.708;2024-03-07T02:38:12;2.90;98.00
48208;DHT22;33997;53.278;9.708;2024-03-07T02:40:38;2.90;98.00
48208;DHT22;33997;53.278;9.708;2024-03-07T02:43:03;2.90;98.00
48208;DHT22;33997;53.278;9.708;2024-03-07T02:45:30;3.00;98.00
48208;DHT22;33997;53.278;9.708;2024-03-07T02:47:56;3.00;98.00
48208;DHT22;33997;53.278;9.708;2024-03-07T02:50:22;3.00;97.80
48208;DHT22;33997;53.278;9.708;2024-03-07T02:52:48;3.00;97.90
48208;DHT22;33997;53.278;9.708;2024-03-07T02:55:14;3.00;97.80
48208;DHT22;33997;53.278;9.708;2024-03-07T02:57:41;3.10;98.00
48208;DHT22;33997;53.278;9.708;2024-03-07T03:00:07;3.10;98.00
48208;DHT22;33997;53.278;9.708;2024-03-07T03:02:45;3.10;97.80
48208;DHT22;33997;53.278;9.708;2024-03-07T03:05:11;3.00;97.80
48208;DHT22;33997;53.278;9.708;2024-03-07T03:07:36;3.10;97.80
48208;DHT22;33997;53.278;9.708;2024-03-07T03:10:02;3.10;97.80
48208;DHT22;33997;53.278;9.708;2024-03-07T03:12:32;3.10;97.90
48208;DHT22;33997;53.278;9.708;2024-03-07T03:14:58;3.10;97.80
48208;DHT22;33997;53.278;9.708;2024-03-07T03:17:23;3.10;97.80
48208;DHT22;33997;53.278;9.708;2024-03-07T03:19:49;3.10;97.80
48208;DHT22;33997;53.278;9.708;2024-03-07T03:22:16;3.10;97.70
48208;DHT22;33997;53.278;9.708;2024-03-07T03:24:43;3.10;97.70
48208;DHT22;33997;53.278;9.708;2024-03-07T03:27:09;3.10;97.80
48208;DHT22;33997;53.278;9.708;2024-03-07T03:29:34;3.10;97.70
48208;DHT22;33997;53.278;9.708;2024-03-07T03:32:00;3.10;97.70
48208;DHT22;33997;53.278;9.708;2024-03-07T03:34:25;3.10;97.60
48208;DHT22;33997;53.278;9.708;2024-03-07T03:36:52;3.20;97.60
48208;DHT22;33997;53.278;9.708;2024-03-07T03:39:17;3.20;97.60
48208;DHT22;33997;53.278;9.708;2024-03-07T03:41:46;3.20;97.50
48208;DHT22;33997;53.278;9.708;2024-03-07T03:44:11;3.20;97.50
48208;DHT22;33997;53.278;9.708;2024-03-07T03:46:37;3.20;97.50
48208;DHT22;33997;53.278;9.708;2024-03-07T03:49:02;3.20;97.40
48208;DHT22;33997;53.278;9.708;2024-03-07T03:51:28;3.30;97.40
48208;DHT22;33997;53.278;9.708;2024-03-07T03:53:53;3.20;97.40
48208;DHT22;33997;53.278;9.708;2024-03-07T03:56:19;3.20;97.30
48208;DHT22;33997;53.278;9.708;2024-03-07T03:58:44;3.20;97.30
48208;DHT22;33997;53.278;9.708;2024-03-07T04:01:10;3.30;97.40
48208;DHT22;33997;53.278;9.708;2024-03-07T04:03:38;3.30;97.30
48208;DHT22;33997;53.278;9.708;2024-03-07T04:06:04;3.30;97.30
48208;DHT22;33997;53.278;9.708;2024-03-07T04:08:30;3.30;97.40
48208;DHT22;33997;53.278;9.708;2024-03-07T04:10:55;3.30;97.30
48208;DHT22;33997;53.278;9.708;2024-03-07T04:13:21;3.30;97.30
48208;DHT22;33997;53.278;9.708;2024-03-07T04:15:51;3.40;97.30
48208;DHT22;33997;53.278;9.708;2024-03-07T04:18:16;3.40;97.20
48208;DHT22;33997;53.278;9.708;2024-03-07T04:20:42;3.40;97.30
48208;DHT22;33997;53.278;9.708;2024-03-07T04:23:09;3.40;97.20
48208;DHT22;33997;53.278;9.708;2024-03-07T04:25:35;3.40;97.20
48208;DHT22;33997;53.278;9.708;2024-03-07T04:28:00;3.40;97.20
48208;DHT22;33997;53.278;9.708;2024-03-07T04:30:26;3.40;97.30
48208;DHT22;33997;53.278;9.708;2024-03-07T04:32:51;3.50;97.40
48208;DHT22;33997;53.278;9.708;2024-03-07T04:35:17;3.50;97.40
48208;DHT22;33997;53.278;9.708;2024-03-07T04:37:42;3.50;97.40
48208;DHT22;33997;53.278;9.708;2024-03-07T04:40:09;3.60;97.50
48208;DHT22;33997;53.278;9.708;2024-03-07T04:42:48;3.60;97.40
48208;DHT22;33997;53.278;9.708;2024-03-07T04:45:15;3.60;97.40
48208;DHT22;33997;53.278;9.708;2024-03-07T04:47:44;3.60;97.50
48208;DHT22;33997;53.278;9.708;2024-03-07T04:50:10;3.60;97.40
48208;DHT22;33997;53.278;9.708;2024-03-07T04:52:39;3.60;97.40
48208;DHT22;33997;53.278;9.708;2024-03-07T04:55:08;3.60;97.40
48208;DHT22;33997;53.278;9.708;2024-03-07T04:57:36;3.60;97.40
48208;DHT22;33997;53.278;9.708;2024-03-07T05:00:04;3.60;97.40
48208;DHT22;33997;53.278;9.708;2024-03-07T05:02:30;3.60;97.30
48208;DHT22;33997;53.278;9.708;2024-03-07T05:04:56;3.60;97.30
48208;DHT22;33997;53.278;9.708;2024-03-07T05:07:21;3.60;97.30
48208;DHT22;33997;53.278;9.708;2024-03-07T05:09:47;3.60;97.30
48208;DHT22;33997;53.278;9.708;2024-03-07T05:12:14;3.60;97.30
48208;DHT22;33997;53.278;9.708;2024-03-07T05:14:39;3.60;97.30
48208;DHT22;33997;53.278;9.708;2024-03-07T05:17:04;3.60;97.30
48208;DHT22;33997;53.278;9.708;2024-03-07T05:19:34;3.50;97.30
48208;DHT22;33997;53.278;9.708;2024-03-07T05:21:59;3.60;97.30
48208;DHT22;33997;53.278;9.708;2024-03-07T05:24:25;3.60;97.30
48208;DHT22;33997;53.278;9.708;2024-03-07T05:26:50;3.50;97.10
48208;DHT22;33997;53.278;9.708;2024-03-07T05:29:18;3.50;97.20
48208;DHT22;33997;53.278;9.708;2024-03-07T05:31:44;3.60;97.30
48208;DHT22;33997;53.278;9.708;2024-03-07T05:34:12;3.50;97.10
48208;DHT22;33997;53.278;9.708;2024-03-07T05:36:38;3.50;97.10
48208;DHT22;33997;53.278;9.708;2024-03-07T05:39:09;3.50;97.10
48208;DHT22;33997;53.278;9.708;2024-03-07T05:41:37;3.40;97.00
48208;DHT22;33997;53.278;9.708;2024-03-07T05:44:02;3.50;97.00
48208;DHT22;33997;53.278;9.708;2024-03-07T05:46:28;3.40;97.00
48208;DHT22;33997;53.278;9.708;2024-03-07T05:48:53;3.40;96.90
48208;DHT22;33997;53.278;9.708;2024-03-07T05:51:24;3.40;96.80
48208;DHT22;33997;53.278;9.708;2024-03-07T05:53:50;3.40;96.90
48208;DHT22;33997;53.278;9.708;2024-03-07T05:56:16;3.40;96.80
48208;DHT22;33997;53.278;9.708;2024-03-07T05:58:41;3.40;96.80
48208;DHT22;33997;53.278;9.708;2024-03-07T06:01:07;3.40;96.70
48208;DHT22;33997;53.278;9.708;2024-03-07T06:03:36;3.40;96.80
48208;DHT22;33997;53.278;9.708;2024-03-07T06:06:01;3.40;96.70
48208;DHT22;33997;53.278;9.708;2024-03-07T06:08:27;3.40;96.70
48208;DHT22;33997;53.278;9.708;2024-03-07T06:10:52;3.40;96.70
48208;DHT22;33997;53.278;9.708;2024-03-07T06:13:18;3.50;96.70
48208;DHT22;33997;53.278;9.708;2024-03-07T06:15:44;3.50;96.60
48208;DHT22;33997;53.278;9.708;2024-03-07T06:18:10;3.40;96.60
48208;DHT22;33997;53.278;9.708;2024-03-07T06:20:43;3.40;96.60
48208;DHT22;33997;53.278;9.708;2024-03-07T06:23:09;3.40;96.60
48208;DHT22;33997;53.278;9.708;2024-03-07T06:25:37;3.30;96.60
48208;DHT22;33997;53.278;9.708;2024-03-07T06:28:12;3.30;96.50
48208;DHT22;33997;53.278;9.708;2024-03-07T06:30:39;3.40;96.60
48208;DHT22;33997;53.278;9.708;2024-03-07T06:33:06;3.40;96.50
48208;DHT22;33997;53.278;9.708;2024-03-07T06:35:32;3.40;96.50
48208;DHT22;33997;53.278;9.708;2024-03-07T06:38:00;3.40;96.40
48208;DHT22;33997;53.278;9.708;2024-03-07T06:40:25;3.30;96.30
48208;DHT22;33997;53.278;9.708;2024-03-07T06:42:51;3.30;96.30
48208;DHT22;33997;53.278;9.708;2024-03-07T06:45:18;3.20;96.20
48208;DHT22;33997;53.278;9.708;2024-03-07T06:47:43;3.30;96.30
48208;DHT22;33997;53.278;9.708;2024-03-07T06:50:09;3.30;96.30
48208;DHT22;33997;53.278;9.708;2024-03-07T06:52:36;3.40;96.20
48208;DHT22;33997;53.278;9.708;2024-03-07T06:55:02;3.30;95.90
48208;DHT22;33997;53.278;9.708;2024-03-07T06:57:32;3.30;95.90
48208;DHT22;33997;53.278;9.708;2024-03-07T06:59:59;3.30;95.80
48208;DHT22;33997;53.278;9.708;2024-03-07T07:02:25;3.30;95.70
48208;DHT22;33997;53.278;9.708;2024-03-07T07:04:53;3.30;95.50
48208;DHT22;33997;53.278;9.708;2024-03-07T07:07:18;3.30;95.40
48208;DHT22;33997;53.278;9.708;2024-03-07T07:09:45;3.30;95.20
48208;DHT22;33997;53.278;9.708;2024-03-07T07:12:11;3.30;94.80
48208;DHT22;33997;53.278;9.708;2024-03-07T07:14:36;3.30;94.60
48208;DHT22;33997;53.278;9.708;2024-03-07T07:17:02;3.30;94.30
48208;DHT22;33997;53.278;9.708;2024-03-07T07:19:27;3.30;94.00
48208;DHT22;33997;53.278;9.708;2024-03-07T07:21:53;3.40;93.90
48208;DHT22;33997;53.278;9.708;2024-03-07T07:24:22;3.40;93.40
48208;DHT22;33997;53.278;9.708;2024-03-07T07:26:49;3.40;93.10
48208;DHT22;33997;53.278;9.708;2024-03-07T07:29:15;3.40;93.00
48208;DHT22;33997;53.278;9.708;2024-03-07T07:31:41;3.30;92.60
48208;DHT22;33997;53.278;9.708;2024-03-07T07:34:06;3.40;92.90
48208;DHT22;33997;53.278;9.708;2024-03-07T07:36:32;3.40;92.90
48208;DHT22;33997;53.278;9.708;2024-03-07T07:38:57;3.40;92.40
48208;DHT22;33997;53.278;9.708;2024-03-07T07:41:23;3.30;92.20
48208;DHT22;33997;53.278;9.708;2024-03-07T07:43:49;3.20;92.20
48208;DHT22;33997;53.278;9.708;2024-03-07T07:46:16;3.10;91.90
48208;DHT22;33997;53.278;9.708;2024-03-07T07:48:42;3.20;92.10
48208;DHT22;33997;53.278;9.708;2024-03-07T07:51:07;3.10;91.70
48208;DHT22;33997;53.278;9.708;2024-03-07T07:53:34;3.20;91.70
48208;DHT22;33997;53.278;9.708;2024-03-07T07:56:00;3.30;91.90
48208;DHT22;33997;53.278;9.708;2024-03-07T07:58:25;3.30;91.40
48208;DHT22;33997;53.278;9.708;2024-03-07T08:00:51;3.40;90.80
48208;DHT22;33997;53.278;9.708;2024-03-07T08:03:17;3.20;89.90
48208;DHT22;33997;53.278;9.708;2024-03-07T08:05:43;3.20;89.90
48208;DHT22;33997;53.278;9.708;2024-03-07T08:08:10;3.20;90.20
48208;DHT22;33997;53.278;9.708;2024-03-07T08:10:41;3.20;89.90
48208;DHT22;33997;53.278;9.708;2024-03-07T08:13:07;3.30;90.00
48208;DHT22;33997;53.278;9.708;2024-03-07T08:15:36;3.40;89.80
48208;DHT22;33997;53.278;9.708;2024-03-07T08:18:02;3.40;89.80
48208;DHT22;33997;53.278;9.708;2024-03-07T08:20:28;3.50;89.50
48208;DHT22;33997;53.278;9.708;2024-03-07T08:22:54;3.40;88.20
48208;DHT22;33997;53.278;9.708;2024-03-07T08:25:22;3.50;88.70
48208;DHT22;33997;53.278;9.708;2024-03-07T08:27:51;3.40;87.80
48208;DHT22;33997;53.278;9.708;2024-03-07T08:30:17;3.40;87.80
48208;DHT22;33997;53.278;9.708;2024-03-07T08:32:48;3.30;87.90
48208;DHT22;33997;53.278;9.708;2024-03-07T08:35:14;3.50;88.30
48208;DHT22;33997;53.278;9.708;2024-03-07T08:37:43;3.50;87.70
48208;DHT22;33997;53.278;9.708;2024-03-07T08:40:10;3.30;87.50
48208;DHT22;33997;53.278;9.708;2024-03-07T08:42:40;3.50;87.90
48208;DHT22;33997;53.278;9.708;2024-03-07T08:45:07;3.30;88.00
48208;DHT22;33997;53.278;9.708;2024-03-07T08:47:36;3.30;88.20
48208;DHT22;33997;53.278;9.708;2024-03-07T08:50:02;3.10;88.20
48208;DHT22;33997;53.278;9.708;2024-03-07T08:52:34;3.20;88.80
48208;DHT22;33997;53.278;9.708;2024-03-07T08:55:02;3.30;88.80
48208;DHT22;33997;53.278;9.708;2024-03-07T08:57:28;3.40;88.60
48208;DHT22;33997;53.278;9.708;2024-03-07T08:59:53;3.50;88.30
48208;DHT22;33997;53.278;9.708;2024-03-07T09:02:18;3.50;87.80
48208;DHT22;33997;53.278;9.708;2024-03-07T09:04:44;3.20;87.10
48208;DHT22;33997;53.278;9.708;2024-03-07T09:07:10;3.20;88.20
48208;DHT22;33997;53.278;9.708;2024-03-07T09:09:35;3.10;87.80
48208;DHT22;33997;53.278;9.708;2024-03-07T09:12:01;3.10;88.20
48208;DHT22;33997;53.278;9.708;2024-03-07T09:14:30;3.30;88.40
48208;DHT22;33997;53.278;9.708;2024-03-07T09:16:56;3.30;87.90
48208;DHT22;33997;53.278;9.708;2024-03-07T09:19:22;3.10;87.20
48208;DHT22;33997;53.278;9.708;2024-03-07T09:21:51;3.00;88.10
48208;DHT22;33997;53.278;9.708;2024-03-07T09:24:18;3.10;88.30
48208;DHT22;33997;53.278;9.708;2024-03-07T09:26:47;3.10;88.10
48208;DHT22;33997;53.278;9.708;2024-03-07T09:29:12;3.10;88.10
48208;DHT22;33997;53.278;9.708;2024-03-07T09:31:38;3.40;88.20
48208;DHT22;33997;53.278;9.708;2024-03-07T09:34:05;3.20;87.70
48208;DHT22;33997;53.278;9.708;2024-03-07T09:36:31;3.10;87.60
48208;DHT22;33997;53.278;9.708;2024-03-07T09:38:56;3.00;87.50
48208;DHT22;33997;53.278;9.708;2024-03-07T09:41:23;3.10;87.20
48208;DHT22;33997;53.278;9.708;2024-03-07T09:43:51;3.20;87.40
48208;DHT22;33997;53.278;9.708;2024-03-07T09:46:21;3.50;87.30
48208;DHT22;33997;53.278;9.708;2024-03-07T09:48:47;3.60;86.80
48208;DHT22;33997;53.278;9.708;2024-03-07T09:51:15;3.60;86.10
48208;DHT22;33997;53.278;9.708;2024-03-07T09:53:43;3.70;86.50
48208;DHT22;33997;53.278;9.708;2024-03-07T09:56:11;3.90;86.30
48208;DHT22;33997;53.278;9.708;2024-03-07T09:58:39;3.60;85.10
48208;DHT22;33997;53.278;9.708;2024-03-07T10:01:06;3.80;85.70
48208;DHT22;33997;53.278;9.708;2024-03-07T10:03:35;3.90;85.50
48208;DHT22;33997;53.278;9.708;2024-03-07T10:06:01;3.80;85.70
48208;DHT22;33997;53.278;9.708;2024-03-07T10:08:27;3.70;84.80
48208;DHT22;33997;53.278;9.708;2024-03-07T10:10:54;3.80;85.70
48208;DHT22;33997;53.278;9.708;2024-03-07T10:13:21;3.80;84.40
48208;DHT22;33997;53.278;9.708;2024-03-07T10:15:48;3.90;85.20
48208;DHT22;33997;53.278;9.708;2024-03-07T10:18:14;4.10;85.10
48208;DHT22;33997;53.278;9.708;2024-03-07T10:20:42;4.20;84.70
48208;DHT22;33997;53.278;9.708;2024-03-07T10:23:08;4.10;84.60
48208;DHT22;33997;53.278;9.708;2024-03-07T10:25:34;4.50;84.80
48208;DHT22;33997;53.278;9.708;2024-03-07T10:28:01;4.60;84.70
48208;DHT22;33997;53.278;9.708;2024-03-07T10:30:29;4.70;84.10
48208;DHT22;33997;53.278;9.708;2024-03-07T10:32:59;4.80;84.60
48208;DHT22;33997;53.278;9.708;2024-03-07T10:35:25;5.00;84.10
48208;DHT22;33997;53.278;9.708;2024-03-07T10:37:56;5.00;83.20
48208;DHT22;33997;53.278;9.708;2024-03-07T10:40:25;5.10;83.10
48208;DHT22;33997;53.278;9.708;2024-03-07T10:42:56;4.90;83.30
48208;DHT22;33997;53.278;9.708;2024-03-07T10:45:21;4.90;83.40
48208;DHT22;33997;53.278;9.708;2024-03-07T10:47:54;5.10;83.30
48208;DHT22;33997;53.278;9.708;2024-03-07T10:58:58;5.60;82.00
48208;DHT22;33997;53.278;9.708;2024-03-07T11:01:30;5.60;81.20
48208;DHT22;33997;53.278;9.708;2024-03-07T11:03:59;5.80;81.90
48208;DHT22;33997;53.278;9.708;2024-03-07T11:06:25;5.80;81.70
48208;DHT22;33997;53.278;9.708;2024-03-07T11:08:51;5.80;80.60
48208;DHT22;33997;53.278;9.708;2024-03-07T11:11:17;5.60;80.60
48208;DHT22;33997;53.278;9.708;2024-03-07T11:13:43;5.70;80.60
48208;DHT22;33997;53.278;9.708;2024-03-07T11:16:10;5.60;80.40
48208;DHT22;33997;53.278;9.708;2024-03-07T11:18:35;5.50;81.70
48208;DHT22;33997;53.278;9.708;2024-03-07T11:21:01;5.60;81.30
48208;DHT22;33997;53.278;9.708;2024-03-07T11:23:32;5.60;81.00
48208;DHT22;33997;53.278;9.708;2024-03-07T11:26:10;6.10;81.20
48208;DHT22;33997;53.278;9.708;2024-03-07T11:28:37;6.30;80.30
48208;DHT22;33997;53.278;9.708;2024-03-07T11:31:13;6.10;80.20
48208;DHT22;33997;53.278;9.708;2024-03-07T11:33:42;5.80;79.70
48208;DHT22;33997;53.278;9.708;2024-03-07T11:36:43;5.80;80.60
48208;DHT22;33997;53.278;9.708;2024-03-07T11:39:44;5.80;80.20
48208;DHT22;33997;53.278;9.708;2024-03-07T11:42:25;5.80;80.60
48208;DHT22;33997;53.278;9.708;2024-03-07T11:44:52;5.80;80.90
48208;DHT22;33997;53.278;9.708;2024-03-07T11:47:18;5.60;81.40
48208;DHT22;33997;53.278;9.708;2024-03-07T11:49:46;5.40;82.00
48208;DHT22;33997;53.278;9.708;2024-03-07T11:52:17;5.30;81.60
48208;DHT22;33997;53.278;9.708;2024-03-07T11:54:43;5.30;83.20
48208;DHT22;33997;53.278;9.708;2024-03-07T11:57:18;5.60;82.60
48208;DHT22;33997;53.278;9.708;2024-03-07T11:59:58;5.60;82.60
48208;DHT22;33997;53.278;9.708;2024-03-07T12:02:27;5.60;82.20
48208;DHT22;33997;53.278;9.708;2024-03-07T12:04:52;5.60;82.60
48208;DHT22;33997;53.278;9.708;2024-03-07T12:07:18;5.50;83.10
48208;DHT22;33997;53.278;9.708;2024-03-07T12:09:48;5.60;83.40
48208;DHT22;33997;53.278;9.708;2024-03-07T12:12:17;5.40;83.20
48208;DHT22;33997;53.278;9.708;2024-03-07T12:14:43;5.30;83.20
48208;DHT22;33997;53.278;9.708;2024-03-07T12:17:09;5.30;83.10
48208;DHT22;33997;53.278;9.708;2024-03-07T12:19:35;5.20;83.50
48208;DHT22;33997;53.278;9.708;2024-03-07T12:22:02;5.30;83.80
48208;DHT22;33997;53.278;9.708;2024-03-07T12:24:28;5.30;84.20
48208;DHT22;33997;53.278;9.708;2024-03-07T12:27:05;5.10;84.40
48208;DHT22;33997;53.278;9.708;2024-03-07T12:29:31;5.10;84.50
48208;DHT22;33997;53.278;9.708;2024-03-07T12:31:57;5.00;84.50
48208;DHT22;33997;53.278;9.708;2024-03-07T12:34:22;5.00;85.00
48208;DHT22;33997;53.278;9.708;2024-03-07T12:36:52;5.10;84.40
48208;DHT22;33997;53.278;9.708;2024-03-07T12:39:24;5.00;84.70
48208;DHT22;33997;53.278;9.708;2024-03-07T12:41:51;5.00;84.60
48208;DHT22;33997;53.278;9.708;2024-03-07T12:44:19;5.30;84.70
48208;DHT22;33997;53.278;9.708;2024-03-07T12:46:47;5.40;84.20
48208;DHT22;33997;53.278;9.708;2024-03-07T12:49:13;5.20;84.00
48208;DHT22;33997;53.278;9.708;2024-03-07T12:51:43;5.30;83.70
48208;DHT22;33997;53.278;9.708;2024-03-07T12:54:09;5.40;83.70
48208;DHT22;33997;53.278;9.708;2024-03-07T12:56:38;5.40;83.50
48208;DHT22;33997;53.278;9.708;2024-03-07T12:59:04;5.60;83.30
48208;DHT22;33997;53.278;9.708;2024-03-07T13:01:31;5.60;83.10
48208;DHT22;33997;53.278;9.708;2024-03-07T13:03:58;5.60;83.10
48208;DHT22;33997;53.278;9.708;2024-03-07T13:06:24;5.60;82.50
48208;DHT22;33997;53.278;9.708;2024-03-07T13:08:55;5.60;82.30
48208;DHT22;33997;53.278;9.708;2024-03-07T13:11:22;5.50;82.80
48208;DHT22;33997;53.278;9.708;2024-03-07T13:13:48;5.60;83.10
48208;DHT22;33997;53.278;9.708;2024-03-07T13:16:14;5.70;82.50
48208;DHT22;33997;53.278;9.708;2024-03-07T13:18:40;5.80;81.70
48208;DHT22;33997;53.278;9.708;2024-03-07T13:21:06;6.10;82.20
48208;DHT22;33997;53.278;9.708;2024-03-07T13:23:35;6.00;81.20
48208;DHT22;33997;53.278;9.708;2024-03-07T13:26:04;6.20;81.50
48208;DHT22;33997;53.278;9.708;2024-03-07T13:28:34;6.20;80.70
48208;DHT22;33997;53.278;9.708;2024-03-07T13:30:59;5.80;80.50
48208;DHT22;33997;53.278;9.708;2024-03-07T13:33:25;6.00;82.10
48208;DHT22;33997;53.278;9.708;2024-03-07T13:35:52;5.70;81.50
48208;DHT22;33997;53.278;9.708;2024-03-07T13:38:18;5.80;81.90
48208;DHT22;33997;53.278;9.708;2024-03-07T13:40:44;5.70;82.00
48208;DHT22;33997;53.278;9.708;2024-03-07T13:43:09;6.00;82.20
48208;DHT22;33997;53.278;9.708;2024-03-07T13:45:35;5.60;80.90
48208;DHT22;33997;53.278;9.708;2024-03-07T13:48:05;5.70;81.30
48208;DHT22;33997;53.278;9.708;2024-03-07T13:50:32;5.60;81.70
48208;DHT22;33997;53.278;9.708;2024-03-07T13:52:59;5.60;81.70
48208;DHT22;33997;53.278;9.708;2024-03-07T13:55:48;5.60;81.60
48208;DHT22;33997;53.278;9.708;2024-03-07T14:10:29;5.80;82.20
48208;DHT22;33997;53.278;9.708;2024-03-07T14:13:39;5.70;82.30
48208;DHT22;33997;53.278;9.708;2024-03-07T14:19:24;5.70;82.60
48208;DHT22;33997;53.278;9.708;2024-03-07T14:22:07;5.80;81.70
48208;DHT22;33997;53.278;9.708;2024-03-07T14:27:32;5.90;81.40
48208;DHT22;33997;53.278;9.708;2024-03-07T14:33:05;6.30;80.50
48208;DHT22;33997;53.278;9.708;2024-03-07T14:38:29;6.40;80.10
48208;DHT22;33997;53.278;9.708;2024-03-07T14:40:57;6.40;79.60
48208;DHT22;33997;53.278;9.708;2024-03-07T14:43:23;6.10;79.70
48208;DHT22;33997;53.278;9.708;2024-03-07T14:45:49;6.10;79.40
48208;DHT22;33997;53.278;9.708;2024-03-07T14:48:17;6.20;79.90
48208;DHT22;33997;53.278;9.708;2024-03-07T14:50:45;6.10;78.70
48208;DHT22;33997;53.278;9.708;2024-03-07T14:53:12;6.60;79.00
48208;DHT22;33997;53.278;9.708;2024-03-07T14:55:39;8.10;76.90
48208;DHT22;33997;53.278;9.708;2024-03-07T14:58:06;8.70;74.00
48208;DHT22;33997;53.278;9.708;2024-03-07T15:00:36;9.40;70.10
48208;DHT22;33997;53.278;9.708;2024-03-07T15:03:08;10.10;70.50
48208;DHT22;33997;53.278;9.708;2024-03-07T15:05:34;10.10;66.10
48208;DHT22;33997;53.278;9.708;2024-03-07T15:08:00;10.20;66.00
48208;DHT22;33997;53.278;9.708;2024-03-07T15:10:30;9.50;66.30
48208;DHT22;33997;53.278;9.708;2024-03-07T15:12:57;8.90;67.90
48208;DHT22;33997;53.278;9.708;2024-03-07T15:15:22;8.30;68.50
48208;DHT22;33997;53.278;9.708;2024-03-07T15:17:50;7.70;70.40
48208;DHT22;33997;53.278;9.708;2024-03-07T15:20:16;7.50;71.90
48208;DHT22;33997;53.278;9.708;2024-03-07T15:25:14;8.20;73.40
48208;DHT22;33997;53.278;9.708;2024-03-07T15:27:43;9.00;71.30
48208;DHT22;33997;53.278;9.708;2024-03-07T15:30:10;9.90;69.30
48208;DHT22;33997;53.278;9.708;2024-03-07T15:32:40;10.10;64.00
48208;DHT22;33997;53.278;9.708;2024-03-07T15:35:06;10.70;65.90
48208;DHT22;33997;53.278;9.708;2024-03-07T15:37:36;11.10;64.00
48208;DHT22;33997;53.278;9.708;2024-03-07T15:40:10;10.80;63.30
48208;DHT22;33997;53.278;9.708;2024-03-07T15:42:44;11.10;61.30
48208;DHT22;33997;53.278;9.708;2024-03-07T15:45:17;11.00;62.20
48208;DHT22;33997;53.278;9.708;2024-03-07T15:47:43;10.80;60.80
48208;DHT22;33997;53.278;9.708;2024-03-07T15:50:10;11.00;61.80
48208;DHT22;33997;53.278;9.708;2024-03-07T15:52:42;10.90;60.00
48208;DHT22;33997;53.278;9.708;2024-03-07T15:55:08;10.80;60.60
48208;DHT22;33997;53.278;9.708;2024-03-07T15:57:44;10.80;61.60
48208;DHT22;33997;53.278;9.708;2024-03-07T16:00:15;10.90;60.10
48208;DHT22;33997;53.278;9.708;2024-03-07T16:02:55;11.00;60.30
48208;DHT22;33997;53.278;9.708;2024-03-07T16:05:25;10.20;61.10
48208;DHT22;33997;53.278;9.708;2024-03-07T16:07:51;10.50;61.20
48208;DHT22;33997;53.278;9.708;2024-03-07T16:10:19;10.50;62.60
48208;DHT22;33997;53.278;9.708;2024-03-07T16:12:46;10.20;61.30
48208;DHT22;33997;53.278;9.708;2024-03-07T16:15:11;10.40;61.60
48208;DHT22;33997;53.278;9.708;2024-03-07T16:17:37;10.10;61.80
48208;DHT22;33997;53.278;9.708;2024-03-07T16:20:04;9.80;61.00
48208;DHT22;33997;53.278;9.708;2024-03-07T16:22:32;9.30;63.60